createdAt,value
2019-05-05T00:00:15.978Z,0.90
2019-05-05T00:03:04.285Z,0.90
2019-05-05T00:05:35.381Z,0.80
2019-05-05T00:08:04.870Z,0.70
2019-05-05T00:10:35.356Z,0.70
2019-05-05T00:13:05.441Z,0.70
2019-05-05T00:15:52.143Z,0.60
2019-05-05T00:18:22.231Z,0.60
2019-05-05T00:20:50.691Z,0.50
2019-05-05T00:23:19.245Z,0.50
2019-05-05T00:25:47.834Z,0.50
2019-05-05T00:28:16.349Z,0.50
2019-05-05T00:30:44.950Z,0.50
2019-05-05T00:33:14.504Z,0.40
2019-05-05T00:35:45.082Z,0.40
2019-05-05T00:38:14.280Z,0.40
2019-05-05T00:40:44.320Z,0.40
2019-05-05T00:43:14.706Z,0.30
2019-05-05T00:45:45.197Z,0.30
2019-05-05T00:48:21.389Z,0.30
2019-05-05T00:50:51.791Z,0.30
2019-05-05T00:53:20.348Z,0.30
2019-05-05T00:55:48.878Z,0.20
2019-05-05T00:58:17.380Z,0.20
2019-05-05T01:00:47.806Z,0.20
2019-05-05T01:03:17.900Z,0.20
2019-05-05T01:05:48.041Z,0.20
2019-05-05T01:08:19.086Z,0.20
2019-05-05T01:10:47.607Z,0.20
2019-05-05T01:13:16.086Z,0.20
2019-05-05T01:15:44.935Z,0.10
2019-05-05T01:18:15.232Z,0.10
2019-05-05T01:20:44.820Z,0.10
2019-05-05T01:23:15.044Z,0.10
2019-05-05T01:25:45.508Z,0.00
2019-05-05T01:28:14.389Z,0.00
2019-05-05T01:31:05.597Z,0.00
2019-05-05T01:33:45.164Z,0.00
2019-05-05T01:36:14.903Z,0.00
2019-05-05T01:38:51.022Z,-0.10
2019-05-05T01:41:25.304Z,-0.10
2019-05-05T01:43:54.245Z,-0.20
2019-05-05T01:46:24.585Z,-0.20
2019-05-05T01:48:54.807Z,-0.10
2019-05-05T01:51:24.786Z,-0.20
2019-05-05T01:53:54.581Z,-0.20
2019-05-05T01:56:24.702Z,-0.20
2019-05-05T01:58:54.712Z,-0.20
2019-05-05T02:01:24.662Z,-0.20
2019-05-05T02:03:54.894Z,-0.20
2019-05-05T02:06:24.850Z,-0.30
2019-05-05T02:08:54.831Z,-0.20
2019-05-05T02:11:24.688Z,-0.30
2019-05-05T02:13:54.568Z,-0.30
2019-05-05T02:16:25.351Z,-0.30
2019-05-05T02:18:54.501Z,-0.20
2019-05-05T02:21:24.720Z,-0.30
2019-05-05T02:23:54.765Z,-0.30
2019-05-05T02:26:24.545Z,-0.30
2019-05-05T02:29:00.934Z,-0.30
2019-05-05T02:31:47.471Z,-0.30
2019-05-05T02:34:16.563Z,-0.30
2019-05-05T02:36:45.960Z,-0.30
2019-05-05T02:39:15.946Z,-0.30
2019-05-05T02:41:45.614Z,-0.40
2019-05-05T02:44:15.433Z,-0.40
2019-05-05T02:46:46.898Z,-0.40
2019-05-05T02:49:16.071Z,-0.40
2019-05-05T02:51:45.995Z,-0.40
2019-05-05T02:54:15.240Z,-0.50
2019-05-05T02:56:46.014Z,-0.40
2019-05-05T02:59:17.561Z,-0.40
2019-05-05T03:01:50.665Z,-0.40
2019-05-05T03:04:19.966Z,-0.40
2019-05-05T03:06:51.409Z,-0.40
2019-05-05T03:09:21.938Z,-0.30
2019-05-05T03:11:54.123Z,-0.30
2019-05-05T03:14:26.225Z,-0.20
2019-05-05T03:16:55.421Z,-0.20
2019-05-05T03:19:25.112Z,-0.20
2019-05-05T03:21:54.803Z,-0.10
2019-05-05T03:24:23.653Z,-0.10
2019-05-05T03:26:53.736Z,-0.10
2019-05-05T03:29:24.363Z,-0.10
2019-05-05T03:31:56.317Z,0.00
2019-05-05T03:34:24.086Z,0.00
2019-05-05T03:36:53.668Z,0.10
2019-05-05T03:39:24.213Z,0.10
2019-05-05T03:41:54.691Z,0.10
2019-05-05T03:44:28.277Z,0.20
2019-05-05T03:46:57.264Z,0.20
2019-05-05T03:49:27.191Z,0.20
2019-05-05T03:51:55.876Z,0.30
2019-05-05T03:54:24.419Z,0.30
2019-05-05T03:57:08.558Z,0.30
2019-05-05T03:59:44.433Z,0.40
2019-05-05T04:02:15.214Z,0.40
2019-05-05T04:04:45.307Z,0.40
2019-05-05T04:07:14.119Z,0.40
2019-05-05T04:09:43.840Z,0.50
2019-05-05T04:12:13.787Z,0.60
2019-05-05T04:14:44.448Z,0.60
2019-05-05T04:17:33.556Z,0.60
2019-05-05T04:20:18.760Z,0.60
2019-05-05T04:22:47.277Z,0.70
2019-05-05T04:25:35.405Z,0.70
2019-05-05T04:28:04.474Z,0.70
2019-05-05T04:30:33.806Z,0.80
2019-05-05T04:33:03.808Z,0.90
2019-05-05T04:35:34.001Z,1.00
2019-05-05T04:38:04.130Z,1.10
2019-05-05T04:40:34.547Z,1.20
2019-05-05T04:43:03.882Z,1.30
2019-05-05T04:45:35.525Z,1.50
2019-05-05T04:48:14.625Z,1.60
2019-05-05T04:50:50.449Z,1.70
2019-05-05T04:53:24.127Z,1.90
2019-05-05T04:55:53.584Z,2.00
2019-05-05T04:58:24.153Z,2.10
2019-05-05T05:00:54.544Z,2.30
2019-05-05T05:06:23.691Z,2.50
2019-05-05T05:08:53.619Z,2.70
2019-05-05T05:11:24.538Z,2.80
2019-05-05T05:13:54.391Z,2.90
2019-05-05T05:16:24.241Z,3.20
2019-05-05T05:18:53.759Z,3.30
2019-05-05T05:21:23.700Z,3.50
2019-05-05T05:23:53.632Z,3.80
2019-05-05T05:26:24.129Z,3.90
2019-05-05T05:28:53.855Z,4.00
2019-05-05T05:31:24.353Z,4.20
2019-05-05T05:33:54.796Z,4.30
2019-05-05T05:36:24.708Z,4.60
2019-05-05T05:38:54.721Z,4.80
2019-05-05T05:41:46.051Z,5.00
2019-05-05T05:44:16.881Z,5.20
2019-05-05T05:46:58.823Z,5.40
2019-05-05T05:49:38.021Z,5.50
2019-05-05T05:52:15.924Z,5.70
2019-05-05T05:54:36.849Z,5.80
2019-05-05T05:57:05.317Z,6.00
2019-05-05T05:59:34.346Z,6.10
2019-05-05T06:02:09.721Z,6.30
2019-05-05T06:04:34.054Z,6.50
2019-05-05T06:07:04.079Z,6.70
2019-05-05T06:09:34.409Z,6.80
2019-05-05T06:12:03.616Z,6.90
2019-05-05T06:14:34.077Z,7.00
2019-05-05T06:17:04.238Z,7.10
2019-05-05T06:19:34.385Z,7.10
2019-05-05T06:22:03.549Z,7.10
2019-05-05T06:24:34.390Z,7.10
2019-05-05T06:27:03.768Z,7.10
2019-05-05T06:29:34.946Z,7.10
2019-05-05T06:32:04.017Z,7.20
2019-05-05T06:34:33.867Z,7.30
2019-05-05T06:37:04.257Z,7.30
2019-05-05T06:39:34.509Z,7.40
2019-05-05T06:42:07.156Z,7.40
2019-05-05T06:44:37.246Z,7.50
2019-05-05T06:47:13.647Z,7.50
2019-05-05T06:49:43.808Z,7.70
2019-05-05T06:52:14.291Z,7.70
2019-05-05T06:54:43.863Z,7.70
2019-05-05T06:57:13.682Z,7.80
2019-05-05T06:59:43.895Z,7.70
2019-05-05T07:02:14.400Z,7.70
2019-05-05T07:04:44.461Z,7.70
2019-05-05T07:07:14.593Z,7.80
2019-05-05T07:09:44.309Z,7.80
2019-05-05T07:12:13.845Z,7.90
2019-05-05T07:14:44.460Z,7.90
2019-05-05T07:17:14.050Z,8.00
2019-05-05T07:19:45.036Z,8.00
2019-05-05T07:22:14.020Z,8.00
2019-05-05T07:24:43.685Z,8.10
2019-05-05T07:27:13.867Z,8.20
2019-05-05T07:29:43.698Z,8.30
2019-05-05T07:32:14.157Z,8.30
2019-05-05T07:34:50.264Z,8.20
2019-05-05T07:37:18.775Z,8.30
2019-05-05T07:39:47.230Z,8.40
2019-05-05T07:42:15.717Z,8.30
2019-05-05T07:44:44.246Z,8.40
2019-05-05T07:47:14.563Z,8.40
2019-05-05T07:49:44.179Z,8.60
2019-05-05T07:52:14.983Z,8.60
2019-05-05T07:54:43.602Z,8.60
2019-05-05T07:57:14.479Z,8.90
2019-05-05T07:59:44.568Z,8.80
2019-05-05T08:02:14.564Z,9.00
2019-05-05T08:04:43.784Z,8.90
2019-05-05T08:07:14.563Z,8.80
2019-05-05T08:09:44.475Z,9.00
2019-05-05T08:12:13.784Z,8.90
2019-05-05T08:14:44.332Z,9.00
2019-05-05T08:17:30.596Z,9.00
2019-05-05T08:20:04.070Z,9.30
2019-05-05T08:22:53.649Z,9.40
2019-05-05T08:25:36.141Z,9.30
2019-05-05T08:28:00.448Z,9.30
2019-05-05T08:30:30.590Z,9.50
2019-05-05T08:32:59.170Z,9.50
2019-05-05T08:35:27.630Z,9.50
2019-05-05T08:37:56.135Z,9.40
2019-05-05T08:40:24.595Z,9.40
2019-05-05T08:42:53.889Z,9.60
2019-05-05T08:45:26.145Z,9.60
2019-05-05T08:47:54.230Z,9.70
2019-05-05T08:50:26.454Z,10.00
2019-05-05T08:52:53.711Z,10.10
2019-05-05T08:55:24.439Z,10.10
2019-05-05T08:57:54.018Z,10.10
2019-05-05T09:00:24.458Z,9.70
2019-05-05T09:02:54.295Z,9.80
2019-05-05T09:05:23.841Z,9.80
2019-05-05T09:07:54.596Z,10.00
2019-05-05T09:10:23.678Z,9.90
2019-05-05T09:12:54.124Z,10.10
2019-05-05T09:15:24.314Z,10.00
2019-05-05T09:17:54.533Z,10.10
2019-05-05T09:20:24.214Z,10.50
2019-05-05T09:22:53.551Z,10.60
2019-05-05T09:25:26.629Z,10.50
2019-05-05T09:28:02.823Z,10.70
2019-05-05T09:30:50.836Z,10.70
2019-05-05T09:33:19.403Z,10.80
2019-05-05T09:35:48.004Z,10.80
2019-05-05T09:38:17.352Z,10.60
2019-05-05T09:40:45.985Z,10.70
2019-05-05T09:43:14.960Z,10.50
2019-05-05T09:45:44.264Z,10.50
2019-05-05T09:48:14.009Z,10.50
2019-05-05T09:50:43.702Z,10.40
2019-05-05T09:53:14.477Z,10.20
2019-05-05T09:55:44.343Z,10.00
2019-05-05T09:58:13.814Z,9.90
2019-05-05T10:00:44.322Z,10.10
2019-05-05T10:03:14.460Z,10.20
2019-05-05T10:05:44.458Z,10.10
2019-05-05T10:08:14.265Z,10.30
2019-05-05T10:10:44.227Z,10.40
2019-05-05T10:13:14.982Z,10.60
2019-05-05T10:15:44.322Z,10.40
2019-05-05T10:18:14.127Z,10.60
2019-05-05T10:20:42.857Z,10.70
2019-05-05T10:23:11.445Z,11.00
2019-05-05T10:25:41.651Z,11.10
2019-05-05T10:28:10.172Z,11.10
2019-05-05T10:30:38.640Z,11.00
2019-05-05T10:33:07.296Z,11.00
2019-05-05T10:35:36.587Z,11.00
2019-05-05T10:38:05.119Z,11.10
2019-05-05T10:40:34.821Z,10.90
2019-05-05T10:43:04.549Z,10.90
2019-05-05T10:45:33.300Z,10.80
2019-05-05T10:48:03.856Z,10.90
2019-05-05T10:50:34.096Z,11.20
2019-05-05T10:53:04.511Z,11.30
2019-05-05T10:55:34.690Z,11.30
2019-05-05T10:58:03.312Z,11.30
2019-05-05T11:00:50.853Z,11.30
2019-05-05T11:03:19.758Z,11.40
2019-05-05T11:05:48.286Z,11.30
2019-05-05T11:08:17.309Z,11.50
2019-05-05T11:10:46.004Z,11.40
2019-05-05T11:13:14.962Z,11.60
2019-05-05T11:15:44.492Z,11.60
2019-05-05T11:18:14.684Z,11.70
2019-05-05T11:20:44.618Z,11.70
2019-05-05T11:23:14.890Z,11.70
2019-05-05T11:25:44.363Z,11.80
2019-05-05T11:28:13.486Z,11.90
2019-05-05T11:30:45.700Z,11.80
2019-05-05T11:33:34.374Z,11.90
2019-05-05T11:36:13.662Z,12.10
2019-05-05T11:38:44.387Z,11.90
2019-05-05T11:41:14.363Z,11.70
2019-05-05T11:43:42.824Z,11.70
2019-05-05T11:46:11.349Z,11.60
2019-05-05T11:48:39.870Z,11.90
2019-05-05T11:51:08.464Z,12.00
2019-05-05T11:53:37.656Z,12.10
2019-05-05T11:56:06.178Z,12.20
2019-05-05T11:58:34.820Z,12.10
2019-05-05T12:01:03.850Z,11.80
2019-05-05T12:03:33.952Z,11.80
2019-05-05T12:06:03.982Z,11.70
2019-05-05T12:08:34.582Z,11.80
2019-05-05T12:11:04.672Z,11.80
2019-05-05T12:13:33.504Z,12.00
2019-05-05T12:16:04.633Z,12.30
2019-05-05T12:18:34.302Z,12.50
2019-05-05T12:21:05.141Z,12.40
2019-05-05T12:23:34.145Z,12.40
2019-05-05T12:26:21.146Z,12.70
2019-05-05T12:28:51.332Z,12.60
2019-05-05T12:31:24.863Z,12.40
2019-05-05T12:33:54.798Z,12.60
2019-05-05T12:36:23.807Z,12.50
2019-05-05T12:38:54.557Z,12.50
2019-05-05T12:41:23.860Z,12.80
2019-05-05T12:43:54.851Z,12.70
2019-05-05T12:46:36.757Z,12.80
2019-05-05T12:49:06.928Z,12.90
2019-05-05T12:51:36.791Z,12.80
2019-05-05T12:54:05.429Z,12.50
2019-05-05T12:56:34.161Z,12.30
2019-05-05T12:59:04.366Z,12.50
2019-05-05T13:01:37.563Z,12.60
2019-05-05T13:04:06.154Z,12.90
2019-05-05T13:06:34.789Z,12.80
2019-05-05T13:09:04.923Z,12.90
2019-05-05T13:11:34.338Z,12.80
2019-05-05T13:14:03.715Z,12.80
2019-05-05T13:16:32.617Z,12.90
2019-05-05T13:19:04.402Z,12.90
2019-05-05T13:21:41.053Z,12.90
2019-05-05T13:24:11.207Z,12.50
2019-05-05T13:26:47.590Z,12.50
2019-05-05T13:29:16.055Z,12.10
2019-05-05T13:31:44.511Z,11.80
2019-05-05T13:34:13.675Z,11.60
2019-05-05T13:36:44.108Z,11.60
2019-05-05T13:39:14.381Z,11.90
2019-05-05T13:41:44.844Z,12.20
2019-05-05T13:44:17.506Z,12.20
2019-05-05T13:46:45.951Z,12.20
2019-05-05T13:49:18.892Z,12.20
2019-05-05T13:51:47.430Z,12.20
2019-05-05T13:54:16.029Z,12.00
2019-05-05T13:56:46.074Z,11.90
2019-05-05T13:59:14.574Z,11.60
2019-05-05T14:01:44.824Z,11.40
2019-05-05T14:04:13.562Z,11.30
2019-05-05T14:06:44.002Z,11.50
2019-05-05T14:09:13.822Z,11.60
2019-05-05T14:11:44.420Z,11.50
2019-05-05T14:14:13.767Z,11.30
2019-05-05T14:16:44.605Z,11.40
2019-05-05T14:19:14.620Z,11.80
2019-05-05T14:21:44.549Z,12.10
2019-05-05T14:24:34.012Z,12.20
2019-05-05T14:27:04.338Z,12.00
2019-05-05T14:29:52.849Z,11.80
2019-05-05T14:32:24.023Z,11.70
2019-05-05T14:35:04.021Z,10.90
2019-05-05T14:37:34.370Z,10.70
2019-05-05T14:40:04.743Z,10.50
2019-05-05T14:42:34.211Z,10.40
2019-05-05T14:45:04.733Z,10.20
2019-05-05T14:47:33.641Z,10.10
2019-05-05T14:50:04.565Z,10.00
2019-05-05T14:52:32.521Z,10.10
2019-05-05T14:55:01.070Z,10.10
2019-05-05T14:57:29.647Z,10.00
2019-05-05T14:59:58.169Z,10.00
2019-05-05T15:02:26.777Z,10.00
2019-05-05T15:04:57.013Z,10.00
2019-05-05T15:07:33.943Z,10.10
2019-05-05T15:10:21.051Z,10.20
2019-05-05T15:12:51.166Z,10.30
2019-05-05T15:15:19.852Z,10.30
2019-05-05T15:17:48.365Z,10.30
2019-05-05T15:20:17.198Z,10.40
2019-05-05T15:22:45.810Z,10.30
2019-05-05T15:25:14.541Z,10.00
2019-05-05T15:27:44.974Z,9.50
2019-05-05T15:30:13.692Z,9.40
2019-05-05T15:32:43.817Z,9.30
2019-05-05T15:35:14.305Z,9.20
2019-05-05T15:37:43.653Z,9.20
2019-05-05T15:40:33.350Z,9.10
2019-05-05T15:43:03.697Z,9.10
2019-05-05T15:45:34.001Z,9.10
2019-05-05T15:48:04.423Z,9.10
2019-05-05T15:50:32.897Z,9.10
2019-05-05T15:53:01.440Z,9.20
2019-05-05T15:55:29.948Z,9.20
2019-05-05T15:57:58.550Z,9.10
2019-05-05T16:00:27.334Z,9.00
2019-05-05T16:02:55.869Z,8.70
2019-05-05T16:05:24.392Z,8.40
2019-05-05T16:07:54.261Z,8.30
2019-05-05T16:10:25.097Z,8.30
2019-05-05T16:12:53.909Z,8.30
2019-05-05T16:15:33.447Z,8.20
2019-05-05T16:18:15.762Z,8.20
2019-05-05T16:21:00.810Z,8.20
2019-05-05T16:23:31.047Z,8.20
2019-05-05T16:25:59.773Z,8.30
2019-05-05T16:28:41.712Z,8.40
2019-05-05T16:31:10.194Z,8.40
2019-05-05T16:33:39.301Z,8.60
2019-05-05T16:36:07.847Z,8.60
2019-05-05T16:38:36.380Z,8.70
2019-05-05T16:41:04.916Z,8.80
2019-05-05T16:43:33.786Z,8.90
2019-05-05T16:46:04.122Z,8.90
2019-05-05T16:48:34.384Z,8.90
2019-05-05T16:51:03.756Z,8.90
2019-05-05T16:53:35.941Z,9.00
2019-05-05T16:56:07.316Z,9.10
2019-05-05T16:58:35.894Z,9.10
2019-05-05T17:01:06.447Z,9.10
2019-05-05T17:03:35.052Z,9.30
2019-05-05T17:06:03.715Z,9.30
2019-05-05T17:08:33.757Z,9.40
2019-05-05T17:11:02.546Z,9.40
2019-05-05T17:13:35.542Z,9.40
2019-05-05T17:16:05.802Z,9.40
2019-05-05T17:18:53.948Z,9.40
2019-05-05T17:21:24.144Z,9.30
2019-05-05T17:23:53.996Z,9.40
2019-05-05T17:26:24.323Z,9.40
2019-05-05T17:28:54.101Z,9.30
2019-05-05T17:31:24.401Z,9.20
2019-05-05T17:33:53.554Z,9.10
2019-05-05T17:36:24.144Z,9.10
2019-05-05T17:38:54.365Z,9.10
2019-05-05T17:41:24.851Z,9.00
2019-05-05T17:43:55.043Z,9.00
2019-05-05T17:46:30.850Z,8.90
2019-05-05T17:49:17.287Z,8.90
2019-05-05T17:51:47.423Z,8.90
2019-05-05T17:54:34.021Z,8.80
2019-05-05T17:57:03.586Z,8.80
2019-05-05T17:59:33.763Z,8.70
2019-05-05T18:02:04.511Z,8.70
2019-05-05T18:04:33.796Z,8.70
2019-05-05T18:07:09.842Z,8.70
2019-05-05T18:09:56.537Z,8.60
2019-05-05T18:12:26.784Z,8.50
2019-05-05T18:14:56.979Z,8.40
2019-05-05T18:17:25.639Z,8.40
2019-05-05T18:19:54.278Z,8.30
2019-05-05T18:22:24.653Z,8.30
2019-05-05T18:24:53.986Z,8.20
2019-05-05T18:27:23.699Z,8.10
2019-05-05T18:29:54.231Z,8.10
2019-05-05T18:32:23.546Z,8.10
2019-05-05T18:34:54.307Z,8.00
2019-05-05T18:37:24.257Z,7.90
2019-05-05T18:39:54.550Z,7.90
2019-05-05T18:42:24.672Z,7.80
2019-05-05T18:45:14.717Z,7.70
2019-05-05T18:47:43.444Z,7.60
2019-05-05T18:50:13.631Z,7.60
2019-05-05T18:52:45.088Z,7.50
2019-05-05T18:55:12.630Z,7.40
2019-05-05T18:57:43.373Z,7.40
2019-05-05T19:00:15.357Z,7.30
2019-05-05T19:02:48.446Z,7.20
2019-05-05T19:05:19.017Z,7.10
2019-05-05T19:07:55.793Z,7.00
2019-05-05T19:10:24.119Z,7.00
2019-05-05T19:12:54.117Z,7.00
2019-05-05T19:15:24.441Z,6.90
2019-05-05T19:17:54.107Z,6.90
2019-05-05T19:20:27.339Z,6.80
2019-05-05T19:22:56.176Z,6.70
2019-05-05T19:25:26.433Z,6.70
2019-05-05T19:27:55.904Z,6.60
2019-05-05T19:30:25.682Z,6.50
2019-05-05T19:32:54.475Z,6.50
2019-05-05T19:35:23.547Z,6.50
2019-05-05T19:37:54.039Z,6.50
2019-05-05T19:40:24.338Z,6.50
2019-05-05T19:42:53.798Z,6.50
2019-05-05T19:45:24.123Z,6.50
2019-05-05T19:47:52.838Z,6.50
2019-05-05T19:50:28.765Z,6.50
2019-05-05T19:52:58.814Z,6.50
2019-05-05T19:55:27.340Z,6.50
2019-05-05T19:57:55.850Z,6.50
2019-05-05T20:00:26.268Z,6.60
2019-05-05T20:03:04.500Z,6.50
2019-05-05T20:05:25.156Z,6.60
2019-05-05T20:07:55.340Z,6.50
2019-05-05T20:10:23.991Z,6.60
2019-05-05T20:12:54.055Z,6.60
2019-05-05T20:15:24.443Z,6.60
2019-05-05T20:17:53.943Z,6.60
2019-05-05T20:20:22.614Z,6.60
2019-05-05T20:22:51.196Z,6.50
2019-05-05T20:25:19.732Z,6.60
2019-05-05T20:27:48.198Z,6.60
2019-05-05T20:30:17.433Z,6.60
2019-05-05T20:33:04.041Z,6.60
2019-05-05T20:35:41.773Z,6.50
2019-05-05T20:38:14.154Z,6.60
2019-05-05T20:40:44.398Z,6.60
2019-05-05T20:43:14.351Z,6.60
2019-05-05T20:45:44.795Z,6.60
2019-05-05T20:48:13.251Z,6.60
2019-05-05T20:50:43.762Z,6.60
2019-05-05T20:53:13.655Z,6.60
2019-05-05T20:55:44.611Z,6.70
2019-05-05T20:58:14.091Z,6.70
2019-05-05T21:00:44.255Z,6.70
2019-05-05T21:03:14.233Z,6.60
2019-05-05T21:05:44.763Z,6.70
2019-05-05T21:08:14.157Z,6.70
2019-05-05T21:10:44.250Z,6.70
2019-05-05T21:13:14.407Z,6.70
2019-05-05T21:15:45.034Z,6.60
2019-05-05T21:18:14.370Z,6.70
2019-05-05T21:20:43.168Z,6.70
2019-05-05T21:23:14.375Z,6.70
2019-05-05T21:25:53.860Z,6.80
2019-05-05T21:28:24.116Z,6.90
2019-05-05T21:30:53.946Z,6.90
2019-05-05T21:33:23.887Z,6.90
2019-05-05T21:35:54.823Z,6.90
2019-05-05T21:38:22.735Z,7.00
2019-05-05T21:40:51.416Z,7.00
2019-05-05T21:43:20.052Z,7.00
2019-05-05T21:45:48.507Z,7.00
2019-05-05T21:48:17.075Z,7.00
2019-05-05T21:50:53.994Z,7.00
2019-05-05T21:53:37.023Z,7.10
2019-05-05T21:56:24.800Z,7.10
2019-05-05T21:58:54.454Z,7.10
2019-05-05T22:01:26.954Z,7.00
2019-05-05T22:03:53.806Z,7.00
2019-05-05T22:06:24.116Z,7.00
2019-05-05T22:08:53.662Z,7.00
2019-05-05T22:11:24.269Z,7.00
2019-05-05T22:13:54.025Z,6.90
2019-05-05T22:16:22.770Z,6.90
2019-05-05T22:18:53.860Z,6.90
2019-05-05T22:21:35.653Z,6.90
2019-05-05T22:24:16.093Z,6.90
2019-05-05T22:26:44.919Z,6.80
2019-05-05T22:29:16.797Z,6.80
2019-05-05T22:31:44.497Z,6.70
2019-05-05T22:34:14.567Z,6.70
2019-05-05T22:36:44.856Z,6.70
2019-05-05T22:39:16.443Z,6.60
2019-05-05T22:42:04.720Z,6.60
2019-05-05T22:44:34.023Z,6.50
2019-05-05T22:47:04.637Z,6.40
2019-05-05T22:49:32.924Z,6.50
2019-05-05T22:52:03.683Z,6.50
2019-05-05T22:54:33.495Z,6.40
2019-05-05T22:57:01.768Z,6.40
2019-05-05T22:59:30.217Z,6.40
2019-05-05T23:01:58.664Z,6.30
2019-05-05T23:04:31.556Z,6.20
2019-05-05T23:07:03.668Z,6.20
2019-05-05T23:09:32.038Z,6.20
2019-05-05T23:12:00.531Z,6.00
2019-05-05T23:14:29.112Z,6.00
2019-05-05T23:17:20.110Z,5.90
2019-05-05T23:19:55.775Z,5.90
2019-05-05T23:22:38.014Z,5.90
2019-05-05T23:25:17.596Z,5.90
2019-05-05T23:27:52.048Z,5.90
2019-05-05T23:30:37.669Z,5.90
2019-05-05T23:32:54.856Z,5.90
2019-05-05T23:35:23.997Z,5.90
2019-05-05T23:37:52.656Z,5.90
2019-05-05T23:40:24.772Z,5.90
2019-05-05T23:42:54.098Z,5.80
2019-05-05T23:45:24.890Z,5.80
2019-05-05T23:47:54.529Z,5.80
2019-05-05T23:50:23.944Z,5.70
2019-05-05T23:52:54.513Z,5.70
2019-05-05T23:55:23.996Z,5.70
2019-05-05T23:57:54.782Z,5.60
